Forside
METAR-TAF:

METAR-TAF

Lufthavne :

Bangkok, Thailand

Breddekreds: 13-54-45N, længdekreds: 100-36-24E, højde: 4 m

Aktuelle vejr

Denne rapport blev lavet for 15 minutter siden, kl. 06:00 UTC
Vind 6 kt fra syd, varierende mellem sydsydøst og vestsydvest
Temperatur 33°C
Fugtighed 53%
Tryk 1010 hPa
Sigt 10 km eller mere
Spredte skyer i en højde af 3500 ft

METAR: VTBD 290600Z 19006KT 150V250 9999 SCT035 33/22 Q1010 NOSIG

Tid: 13:15 (06:15 UTC)

Vejrudsigter

Denne rapport blev lavet for 1 time og 15 minutter siden, kl. 05:00 UTC
Foreløbig gælder fra 29 på 06 UTC til 01 på 12 UTC
Vind 8 kt fra syd
Sigt: 9000 m
Nogle få skyer i en højde af 2000 ft
ændring
fra 29 på 20 UTC til 29 på 22 UTC
Vind 5 kt fra sydøst
ændring
fra 01 på 02 UTC til 01 på 04 UTC
Vind 8 kt fra syd

TAF: VTBD 290500Z 2906/0112 19008KT 9000 FEW020 BECMG 2920/2922 13005KT BECMG 0102/0104 19008KT

Vejrobservationer og prognoser fra mere end 4000 lufthavne (METAR og TAF).

De gule og røde prikker repræsenterer de meteorologiske stationer.

Flyt musen over at se navnet på stationen.

Så klik over at se vejr observationer og prognoser.

At skifte det kort: Klik på de grønne knapper med et sort kors for at zoome ind; på den grønne knap med en bindestreg for at zoome ud; eller på de grønne pile for tilstødende kort.


METAR-TAF: